Time;durP1;ratioP1;P1;durP2;ratioP2;P2;SDS_P1;SDS_P2;PMS_P1;PMS_P2;Temp;Humidity;BMP_temperature;BMP_pressure;BME280_temperature;BME280_humidity;BME280_pressure;Samples;Min_cycle;Max_cycle;Signal;HPM_P1;HPM_P2
2022/07/09 00:01:27;;;;;;;1.77;1.40;;;;;;;18.12;57.74;102448.66;4979672;28;97188;-47
2022/07/09 00:03:54;;;;;;;2.60;1.40;;;;;;;18.09;57.72;102449.66;4979266;28;96757;-47
2022/07/09 00:06:20;;;;;;;3.10;1.63;;;;;;;17.99;57.91;102440.78;4976548;28;96807;-46
2022/07/09 00:08:46;;;;;;;2.60;1.20;;;;;;;17.96;57.87;102434.19;4981001;28;97318;-46
2022/07/09 00:11:11;;;;;;;3.13;1.27;;;;;;;17.95;57.90;102443.78;4980161;28;97405;-47
2022/07/09 00:13:36;;;;;;;1.60;1.30;;;;;;;17.95;57.95;102441.00;4976953;28;96991;-47
2022/07/09 00:16:02;;;;;;;5.53;2.10;;;;;;;17.93;58.00;102440.75;4980176;28;97324;-47
2022/07/09 00:18:27;;;;;;;2.07;1.20;;;;;;;17.90;57.95;102444.53;4983112;28;97446;-46
2022/07/09 00:20:55;;;;;;;1.80;1.47;;;;;;;17.91;58.13;102439.72;4981956;28;97155;-47
2022/07/09 00:23:20;;;;;;;5.20;1.60;;;;;;;17.90;58.04;102438.97;4981529;28;97117;-47
2022/07/09 00:25:46;;;;;;;2.23;1.53;;;;;;;17.90;58.10;102436.19;4980894;28;97304;-47
2022/07/09 00:28:11;;;;;;;1.30;1.13;;;;;;;17.87;58.05;102433.63;4976833;28;97309;-47
2022/07/09 00:30:36;;;;;;;1.73;1.50;;;;;;;17.85;58.06;102433.38;4978774;28;97222;-47
2022/07/09 00:33:02;;;;;;;1.40;1.30;;;;;;;17.84;58.23;102432.59;4980504;28;97081;-47
2022/07/09 00:35:27;;;;;;;3.90;1.60;;;;;;;17.85;58.17;102431.34;4983736;28;96949;-47
2022/07/09 00:37:52;;;;;;;2.50;1.97;;;;;;;17.86;58.35;102432.13;4981161;28;97260;-47
2022/07/09 00:40:18;;;;;;;2.10;1.93;;;;;;;17.88;58.22;102435.94;4970126;28;97294;-46
2022/07/09 00:42:43;;;;;;;1.97;1.77;;;;;;;17.88;58.34;102424.78;4971805;28;96648;-47
2022/07/09 00:45:08;;;;;;;1.50;1.40;;;;;;;17.87;58.29;102428.81;4975904;28;97062;-47
2022/07/09 00:47:34;;;;;;;3.50;1.80;;;;;;;17.88;58.28;102424.03;4975614;28;97900;-47
2022/07/09 00:50:00;;;;;;;2.10;1.80;;;;;;;17.88;58.44;102430.34;4979054;28;97026;-47
2022/07/09 00:52:26;;;;;;;1.73;1.63;;;;;;;17.90;58.46;102427.06;4978628;28;97034;-46
2022/07/09 00:54:52;;;;;;;2.00;1.03;;;;;;;17.93;58.44;102420.50;4980270;28;96809;-47
2022/07/09 00:57:19;;;;;;;1.67;1.57;;;;;;;17.94;58.39;102431.13;4982249;28;97445;-47
2022/07/09 00:59:45;;;;;;;5.70;1.60;;;;;;;17.95;58.46;102426.34;4976625;28;96730;-47
2022/07/09 01:02:11;;;;;;;1.73;1.50;;;;;;;17.95;58.48;102424.28;4967388;28;97136;-47
2022/07/09 01:04:37;;;;;;;2.03;1.40;;;;;;;17.97;58.51;102418.25;4971708;28;97054;-47
2022/07/09 01:07:03;;;;;;;1.80;1.23;;;;;;;17.99;58.67;102415.72;4978980;28;97986;-47
2022/07/09 01:09:29;;;;;;;1.53;1.43;;;;;;;18.00;58.61;102410.91;4975944;28;99008;-46
2022/07/09 01:11:55;;;;;;;1.83;1.60;;;;;;;18.02;58.70;102414.69;4975866;28;97206;-46
2022/07/09 01:14:21;;;;;;;1.77;1.67;;;;;;;18.03;58.63;102399.50;4977236;28;97172;-47
2022/07/09 01:16:46;;;;;;;3.53;1.50;;;;;;;18.05;58.67;102410.13;4979824;28;97156;-45
2022/07/09 01:19:12;;;;;;;2.63;1.50;;;;;;;18.06;58.57;102397.75;4977017;28;97417;-47
2022/07/09 01:21:37;;;;;;;2.87;1.63;;;;;;;18.05;58.83;102393.44;4976103;28;96946;-46
2022/07/09 01:24:03;;;;;;;4.80;1.80;;;;;;;18.06;58.74;102403.31;4972870;28;97049;-46
2022/07/09 01:26:29;;;;;;;3.70;1.77;;;;;;;18.07;58.68;102396.47;4969888;28;96871;-47
2022/07/09 01:28:54;;;;;;;3.90;2.20;;;;;;;18.08;58.71;102392.44;4975063;28;97745;-47
2022/07/09 01:31:19;;;;;;;2.20;2.10;;;;;;;18.07;58.78;102386.09;4978938;28;97083;-47
2022/07/09 01:33:45;;;;;;;4.60;1.97;;;;;;;18.09;58.92;102388.38;4975886;28;97268;-47
2022/07/09 01:36:10;;;;;;;2.03;1.80;;;;;;;18.08;58.95;102382.06;4977750;28;97979;-48
2022/07/09 01:38:36;;;;;;;2.77;1.97;;;;;;;18.07;58.88;102379.75;4978513;28;97862;-48
2022/07/09 01:41:02;;;;;;;2.20;1.97;;;;;;;17.98;58.89;102378.72;4980030;28;97262;-48
2022/07/09 01:43:27;;;;;;;4.50;2.37;;;;;;;17.95;59.14;102376.19;4976527;28;97189;-48
2022/07/09 01:45:53;;;;;;;2.70;2.00;;;;;;;17.89;59.16;102376.16;4974076;28;97297;-48
2022/07/09 01:48:18;;;;;;;2.40;1.97;;;;;;;17.90;59.19;102376.94;4974703;28;96822;-48
2022/07/09 01:50:44;;;;;;;6.00;2.00;;;;;;;17.85;59.07;102374.88;4976339;28;97027;-48
2022/07/09 01:53:09;;;;;;;3.73;2.10;;;;;;;17.81;59.33;102372.34;4973291;28;96965;-48
2022/07/09 01:55:35;;;;;;;2.73;1.70;;;;;;;17.79;59.27;102358.19;4976805;28;97509;-48
2022/07/09 01:58:00;;;;;;;2.27;1.87;;;;;;;17.79;59.41;102362.97;4975865;28;97668;-48
2022/07/09 02:00:27;;;;;;;1.97;1.87;;;;;;;17.79;59.27;102365.75;4975789;28;96952;-48
2022/07/09 02:02:53;;;;;;;1.90;1.73;;;;;;;17.81;59.27;102352.09;4979089;28;96746;-49
2022/07/09 02:05:19;;;;;;;2.53;2.20;;;;;;;17.80;59.36;102356.91;4977123;28;97734;-48
2022/07/09 02:07:44;;;;;;;3.13;1.80;;;;;;;17.77;59.40;102352.34;4973942;28;96911;-48
2022/07/09 02:10:09;;;;;;;1.83;1.73;;;;;;;17.77;59.38;102346.78;4973177;28;99229;-49
2022/07/09 02:12:35;;;;;;;2.47;2.27;;;;;;;17.78;59.23;102348.28;4977169;28;97116;-49
2022/07/09 02:15:00;;;;;;;6.07;2.03;;;;;;;17.78;59.44;102345.50;4976623;28;97294;-48
2022/07/09 02:17:26;;;;;;;2.77;2.57;;;;;;;17.79;59.42;102346.28;4969481;28;96834;-48
2022/07/09 02:19:51;;;;;;;2.07;1.73;;;;;;;17.82;59.42;102351.59;4977514;28;97069;-48
2022/07/09 02:22:17;;;;;;;2.97;1.80;;;;;;;17.84;59.39;102345.53;4974721;28;97118;-47
2022/07/09 02:24:42;;;;;;;2.23;1.83;;;;;;;17.82;59.54;102337.66;4975604;28;97341;-48
2022/07/09 02:27:07;;;;;;;2.77;2.57;;;;;;;17.82;59.50;102340.44;4975270;28;97167;-47
2022/07/09 02:29:33;;;;;;;1.70;1.60;;;;;;;17.84;59.36;102346.28;4973791;28;96907;-48
2022/07/09 02:31:58;;;;;;;3.63;1.80;;;;;;;17.86;59.54;102338.22;4976881;28;97280;-48
2022/07/09 02:34:24;;;;;;;2.37;1.97;;;;;;;17.89;59.59;102341.97;4977177;28;96802;-48
2022/07/09 02:36:50;;;;;;;2.60;2.00;;;;;;;17.90;59.53;102335.94;4977884;28;97157;-48
2022/07/09 02:39:16;;;;;;;2.10;1.80;;;;;;;17.92;59.44;102341.00;4976858;28;97139;-47
2022/07/09 02:41:41;;;;;;;2.30;2.10;;;;;;;17.92;59.48;102335.41;4969099;28;96661;-48
2022/07/09 02:44:06;;;;;;;4.80;2.53;;;;;;;17.94;59.42;102338.47;4973278;28;96993;-48
2022/07/09 02:46:32;;;;;;;8.00;2.67;;;;;;;17.95;59.52;102345.56;4973378;28;96749;-48
2022/07/09 02:48:57;;;;;;;3.03;1.87;;;;;;;17.96;59.45;102342.28;4975408;28;97070;-48
2022/07/09 02:51:22;;;;;;;3.10;1.50;;;;;;;17.98;59.72;102345.31;4981887;28;96925;-48
2022/07/09 02:53:48;;;;;;;3.93;2.53;;;;;;;17.97;59.69;102338.22;4977218;28;104238;-48
2022/07/09 02:56:13;;;;;;;6.33;2.17;;;;;;;17.94;59.75;102333.66;4979727;28;98507;-48
2022/07/09 02:58:38;;;;;;;2.90;2.03;;;;;;;17.95;59.83;102332.38;4978735;28;97114;-47
2022/07/09 03:01:05;;;;;;;5.13;2.67;;;;;;;17.95;59.71;102326.06;4976290;28;97158;-48
2022/07/09 03:03:32;;;;;;;3.40;2.17;;;;;;;17.96;59.81;102322.78;4994963;28;98637;-48
2022/07/09 03:05:57;;;;;;;3.03;1.90;;;;;;;18.01;59.76;102334.44;4983595;28;97428;-48
2022/07/09 03:08:22;;;;;;;5.73;2.70;;;;;;;18.01;59.71;102337.97;4981985;28;97050;-48
2022/07/09 03:10:49;;;;;;;4.20;2.60;;;;;;;18.03;59.61;102337.47;4983161;28;97393;-48
2022/07/09 03:13:14;;;;;;;3.80;2.80;;;;;;;18.03;59.66;102334.69;4979869;28;97203;-48
2022/07/09 03:15:40;;;;;;;2.73;2.50;;;;;;;18.04;59.71;102330.66;4978466;28;96880;-48
2022/07/09 03:18:08;;;;;;;7.47;2.30;;;;;;;18.06;59.61;102330.91;4978594;28;97221;-48
2022/07/09 03:20:33;;;;;;;9.43;3.17;;;;;;;18.06;59.42;102340.03;4981260;28;96920;-48
2022/07/09 03:22:59;;;;;;;4.20;3.00;;;;;;;18.09;59.76;102329.88;4975842;28;101900;-48
2022/07/09 03:25:24;;;;;;;3.87;2.50;;;;;;;18.10;59.66;102346.09;4978228;28;97343;-48
2022/07/09 03:27:49;;;;;;;3.30;2.23;;;;;;;18.11;59.62;102324.59;4981420;28;97047;-47
2022/07/09 03:30:15;;;;;;;5.20;2.80;;;;;;;18.13;59.93;102333.19;4976894;28;96967;-47
2022/07/09 03:32:40;;;;;;;4.23;2.60;;;;;;;18.13;59.89;102328.38;4982607;28;97416;-48
2022/07/09 03:35:06;;;;;;;10.93;3.07;;;;;;;18.15;59.92;102322.31;4985150;28;101653;-48
2022/07/09 03:37:31;;;;;;;5.87;2.43;;;;;;;18.16;59.91;102318.25;4983276;28;98438;-46
2022/07/09 03:39:57;;;;;;;4.53;2.30;;;;;;;18.17;59.97;102317.00;4979252;28;96967;-48
2022/07/09 03:42:22;;;;;;;2.67;2.57;;;;;;;18.18;59.88;102315.72;4980557;28;97184;-51
2022/07/09 03:44:47;;;;;;;5.00;3.10;;;;;;;18.18;59.97;102313.69;4980524;28;97213;-48
2022/07/09 03:47:13;;;;;;;4.53;3.10;;;;;;;18.19;59.98;102326.38;4982307;28;96955;-48
2022/07/09 03:49:38;;;;;;;2.67;2.30;;;;;;;18.20;60.15;102327.09;4980613;28;97268;-48
2022/07/09 03:52:04;;;;;;;3.20;2.90;;;;;;;18.22;60.10;102321.78;4977498;28;96759;-48
2022/07/09 03:54:29;;;;;;;4.67;2.57;;;;;;;18.23;59.93;102315.72;4970619;28;97135;-48
2022/07/09 03:56:54;;;;;;;4.97;3.13;;;;;;;18.24;60.12;102314.44;4968965;28;96946;-48
2022/07/09 03:59:20;;;;;;;6.20;3.17;;;;;;;18.26;60.18;102311.91;4972971;28;96896;-48
2022/07/09 04:01:45;;;;;;;7.03;2.10;;;;;;;18.28;60.11;102303.06;4973479;28;97465;-48
2022/07/09 04:04:10;;;;;;;6.20;2.80;;;;;;;18.29;60.21;102304.56;4978822;28;101091;-48
2022/07/09 04:06:36;;;;;;;4.03;2.93;;;;;;;18.30;60.22;102309.66;4978453;28;97123;-48
2022/07/09 04:09:04;;;;;;;3.67;2.60;;;;;;;18.33;60.17;102296.72;4976508;28;97061;-48
2022/07/09 04:11:31;;;;;;;3.43;2.60;;;;;;;18.34;60.21;102303.81;4980595;28;97769;-48
2022/07/09 04:13:56;;;;;;;3.03;2.80;;;;;;;18.36;60.05;102290.13;4986143;28;96797;-48
2022/07/09 04:16:22;;;;;;;4.40;2.87;;;;;;;18.38;60.25;102284.81;4978041;28;97291;-48
2022/07/09 04:18:47;;;;;;;2.97;2.57;;;;;;;18.40;60.13;102291.41;4967709;28;96903;-49
2022/07/09 04:21:12;;;;;;;4.67;2.80;;;;;;;18.43;60.13;102289.63;4963991;28;106040;-48
2022/07/09 04:23:38;;;;;;;2.50;2.30;;;;;;;18.45;60.31;102292.69;4976874;28;97266;-48
2022/07/09 04:26:03;;;;;;;3.20;2.57;;;;;;;18.47;60.23;102301.31;4973607;28;97172;-49
2022/07/09 04:28:28;;;;;;;8.80;3.10;;;;;;;18.51;60.18;102301.81;4975936;28;97247;-48
2022/07/09 04:30:56;;;;;;;7.33;2.80;;;;;;;18.54;60.24;102295.97;4974090;28;97398;-48
2022/07/09 04:33:21;;;;;;;4.23;2.80;;;;;;;18.56;60.12;102282.31;4980563;28;97076;-48
2022/07/09 04:35:46;;;;;;;5.60;2.80;;;;;;;18.60;60.39;102293.19;4979860;28;96840;-48
2022/07/09 04:38:12;;;;;;;4.40;2.97;;;;;;;18.63;60.30;102281.03;4976521;28;97448;-49
2022/07/09 04:40:39;;;;;;;4.63;3.73;;;;;;;18.66;60.22;102280.00;4974496;28;97375;-48
2022/07/09 04:43:05;;;;;;;7.97;2.90;;;;;;;18.69;60.32;102285.34;4975726;28;97301;-48
2022/07/09 04:45:31;;;;;;;4.53;3.73;;;;;;;18.86;61.29;102288.09;4968246;28;96853;-48
2022/07/09 04:47:58;;;;;;;6.40;3.47;;;;;;;18.78;61.02;102286.31;4976123;28;97214;-48
2022/07/09 04:50:24;;;;;;;5.20;2.93;;;;;;;18.78;60.75;102297.47;4977089;28;97064;-47
2022/07/09 04:52:50;;;;;;;5.73;2.83;;;;;;;18.79;60.73;102293.41;4977085;28;97148;-47
2022/07/09 04:55:16;;;;;;;3.53;2.60;;;;;;;18.81;60.58;102291.63;4977162;28;97424;-48
2022/07/09 04:57:42;;;;;;;3.40;2.47;;;;;;;18.87;60.42;102297.94;4981904;28;96863;-48
2022/07/09 05:00:08;;;;;;;3.13;2.30;;;;;;;18.93;60.51;102303.53;4974862;28;97484;-48
2022/07/09 05:02:33;;;;;;;2.83;2.60;;;;;;;18.98;60.48;102306.28;4973835;28;97190;-49
2022/07/09 05:04:59;;;;;;;4.43;2.97;;;;;;;19.03;60.51;102305.53;4976123;28;97066;-48
2022/07/09 05:07:24;;;;;;;2.80;2.23;;;;;;;19.09;60.45;102311.09;4970844;28;97419;-48
2022/07/09 05:09:49;;;;;;;3.83;2.20;;;;;;;19.10;60.58;102305.00;4971113;28;97321;-48
2022/07/09 05:12:15;;;;;;;4.60;2.13;;;;;;;19.13;60.42;102300.44;4976738;28;96899;-48
2022/07/09 05:14:40;;;;;;;5.63;2.60;;;;;;;19.16;60.67;102299.41;4974824;28;97206;-48
2022/07/09 05:17:06;;;;;;;5.60;2.53;;;;;;;19.15;60.42;102297.91;4977690;28;97199;-48
2022/07/09 05:19:32;;;;;;;14.23;2.90;;;;;;;19.20;60.55;102288.72;4975609;28;96617;-48
2022/07/09 05:21:57;;;;;;;3.10;2.40;;;;;;;19.25;60.45;102291.50;4977248;28;97402;-48
2022/07/09 05:24:23;;;;;;;4.50;2.80;;;;;;;19.29;60.35;102292.00;4975307;28;97219;-49
2022/07/09 05:26:48;;;;;;;2.20;2.00;;;;;;;19.34;60.31;102291.25;4974164;28;96877;-48
2022/07/09 05:29:14;;;;;;;3.70;2.43;;;;;;;19.38;60.47;102282.59;4976020;28;96886;-48
2022/07/09 05:31:39;;;;;;;1.87;1.77;;;;;;;19.43;60.46;102327.25;4986790;22;97642;-49
2022/07/09 05:34:05;;;;;;;3.30;1.63;;;;;;;19.51;60.41;102291.16;4993081;28;97050;-48
2022/07/09 05:36:31;;;;;;;2.60;2.40;;;;;;;19.53;60.62;102290.66;4997115;28;97067;-47
2022/07/09 05:38:58;;;;;;;2.77;1.90;;;;;;;19.56;60.55;102287.59;4993325;28;101509;-48
2022/07/09 05:41:24;;;;;;;4.47;2.20;;;;;;;19.61;60.36;102286.81;4995963;28;97124;-48
2022/07/09 05:43:51;;;;;;;3.43;2.07;;;;;;;19.67;60.44;102295.91;4995729;28;96788;-48
2022/07/09 05:46:16;;;;;;;5.30;2.47;;;;;;;19.71;60.70;102292.84;4990303;28;97349;-48
2022/07/09 05:48:41;;;;;;;2.23;2.10;;;;;;;19.75;60.35;102307.28;4987882;28;98345;-47
2022/07/09 05:51:07;;;;;;;3.37;2.20;;;;;;;19.79;60.43;102305.00;4991090;28;98835;-47
2022/07/09 05:53:32;;;;;;;5.50;2.43;;;;;;;19.83;60.31;102308.25;4993437;28;98106;-47
2022/07/09 05:55:57;;;;;;;6.07;2.60;;;;;;;19.86;60.32;102294.00;4994568;28;97366;-47
2022/07/09 05:58:22;;;;;;;5.00;2.80;;;;;;;19.88;60.38;102297.03;4995668;28;97276;-47
2022/07/09 06:00:48;;;;;;;5.70;2.40;;;;;;;19.95;60.22;102292.94;4994575;28;102508;-48
2022/07/09 06:03:13;;;;;;;4.10;2.90;;;;;;;19.99;60.37;102290.63;4994311;28;97570;-48
2022/07/09 06:05:38;;;;;;;6.87;2.83;;;;;;;20.00;60.43;102292.91;4997505;28;97787;-47
2022/07/09 06:08:04;;;;;;;2.83;2.50;;;;;;;20.08;60.26;102281.91;4997476;28;116745;-48
2022/07/09 06:10:29;;;;;;;5.70;2.77;;;;;;;20.14;60.30;102296.59;4995219;28;96976;-47
2022/07/09 06:12:55;;;;;;;2.30;2.10;;;;;;;20.14;60.31;102291.00;4993338;28;97401;-47
2022/07/09 06:15:20;;;;;;;4.10;2.47;;;;;;;20.13;60.13;102279.09;4993939;28;96822;-48
2022/07/09 06:17:45;;;;;;;3.20;2.30;;;;;;;20.16;60.25;102280.84;4997508;28;97243;-48
2022/07/09 06:20:11;;;;;;;4.97;2.40;;;;;;;20.24;60.14;102281.06;4994343;28;97074;-49
2022/07/09 06:22:38;;;;;;;4.83;2.33;;;;;;;20.33;60.16;102277.94;4997903;28;96926;-47
2022/07/09 06:25:04;;;;;;;2.73;2.20;;;;;;;20.37;59.89;102275.63;4996314;28;97443;-48
2022/07/09 06:27:30;;;;;;;1.80;1.70;;;;;;;20.44;59.83;102285.47;4998379;28;97369;-47
2022/07/09 06:29:55;;;;;;;3.47;1.80;;;;;;;20.47;60.06;102287.22;4985959;28;97135;-47
2022/07/09 06:32:20;;;;;;;4.00;2.00;;;;;;;20.52;59.99;102283.63;4990185;28;97305;-49
2022/07/09 06:34:46;;;;;;;2.80;1.80;;;;;;;20.57;59.96;102272.38;4992620;28;99308;-47
2022/07/09 06:37:11;;;;;;;3.93;2.57;;;;;;;20.65;59.69;102283.75;4990024;28;97361;-48
2022/07/09 06:39:47;;;;;;;4.00;1.50;;;;;;;20.69;59.79;102275.81;4987313;28;99278;-48
2022/07/09 06:42:14;;;;;;;1.60;1.50;;;;;;;20.72;59.70;102277.56;4997372;28;97399;-47
2022/07/09 06:44:40;;;;;;;2.50;1.70;;;;;;;20.76;59.60;102278.81;4997134;28;97119;-47
2022/07/09 06:47:06;;;;;;;1.80;1.70;;;;;;;20.80;59.54;102275.69;5000440;28;97428;-47
2022/07/09 06:49:32;;;;;;;2.77;2.20;;;;;;;20.82;59.31;102271.09;5002291;28;97206;-47
2022/07/09 06:51:57;;;;;;;5.37;2.00;;;;;;;20.84;59.38;102264.97;4999765;28;97239;-47
2022/07/09 06:54:23;;;;;;;1.83;1.47;;;;;;;20.82;59.58;102275.94;4999166;28;96994;-48
2022/07/09 06:56:48;;;;;;;1.67;1.57;;;;;;;20.82;59.54;102275.94;4992988;28;97094;-48
2022/07/09 06:59:14;;;;;;;2.90;1.90;;;;;;;20.83;59.56;102277.47;4996923;28;97192;-48
2022/07/09 07:01:40;;;;;;;2.17;1.70;;;;;;;20.87;59.54;102283.50;4994877;28;96814;-47
2022/07/09 07:04:06;;;;;;;2.17;1.97;;;;;;;20.87;59.43;102272.31;4996358;28;97182;-47
2022/07/09 07:06:31;;;;;;;3.73;2.00;;;;;;;20.83;59.58;102272.63;4999443;28;96941;-47
2022/07/09 07:08:57;;;;;;;4.40;1.80;;;;;;;20.82;59.31;102271.09;4996771;28;97150;-48
2022/07/09 07:11:22;;;;;;;1.83;1.43;;;;;;;20.84;59.39;102262.16;4998597;28;97202;-47
2022/07/09 07:13:47;;;;;;;2.20;2.07;;;;;;;20.89;59.55;102266.97;4999750;28;97305;-48
2022/07/09 07:16:13;;;;;;;5.07;1.70;;;;;;;20.94;59.35;102268.94;4997838;28;96991;-47
2022/07/09 07:18:38;;;;;;;2.90;1.50;;;;;;;20.98;59.33;102261.00;4992370;28;97059;-47
2022/07/09 07:21:03;;;;;;;2.60;1.53;;;;;;;21.02;59.47;102252.31;4999696;28;97404;-48
2022/07/09 07:23:31;;;;;;;3.73;1.67;;;;;;;21.07;59.44;102262.72;4995672;28;96894;-47
2022/07/09 07:25:57;;;;;;;3.37;1.20;;;;;;;21.16;59.46;102256.75;4990043;28;97277;-48
2022/07/09 07:28:23;;;;;;;2.23;1.53;;;;;;;21.26;59.35;102252.28;4999921;28;97152;-47
2022/07/09 07:30:48;;;;;;;3.20;1.23;;;;;;;21.34;59.19;102256.75;4998815;28;96861;-47
2022/07/09 07:33:14;;;;;;;1.77;1.23;;;;;;;21.39;58.99;102255.16;4992966;28;97227;-47
2022/07/09 07:35:39;;;;;;;3.50;1.80;;;;;;;21.40;59.03;102251.09;4998892;28;97351;-46
2022/07/09 07:38:04;;;;;;;2.20;1.60;;;;;;;21.39;58.90;102260.78;4991696;28;98738;-48
2022/07/09 07:40:30;;;;;;;1.97;1.00;;;;;;;21.38;58.88;102262.81;4997142;28;97003;-47
2022/07/09 07:42:55;;;;;;;4.20;1.37;;;;;;;21.35;59.01;102257.53;4998403;28;97278;-47
2022/07/09 07:45:21;;;;;;;1.70;1.60;;;;;;;21.32;59.14;102247.38;4996789;28;100580;-47
2022/07/09 07:47:46;;;;;;;2.67;1.93;;;;;;;21.26;59.43;102255.84;4999328;28;97283;-51
2022/07/09 07:50:12;;;;;;;2.70;1.43;;;;;;;21.21;59.65;102255.94;5000569;28;96999;-48
2022/07/09 07:52:37;;;;;;;2.40;1.90;;;;;;;21.22;59.89;102261.00;4998923;28;97027;-47
2022/07/09 07:55:03;;;;;;;1.97;1.60;;;;;;;21.27;59.91;102265.00;4998140;28;96880;-47
2022/07/09 07:57:28;;;;;;;1.47;1.40;;;;;;;21.32;59.96;102261.38;4999404;28;97199;-47
2022/07/09 07:59:53;;;;;;;2.23;1.97;;;;;;;21.35;59.94;102254.72;4993714;28;97092;-47
2022/07/09 08:02:18;;;;;;;1.93;1.67;;;;;;;21.37;59.89;102238.91;4998250;28;97749;-49
2022/07/09 08:04:44;;;;;;;1.70;1.60;;;;;;;21.41;60.01;102244.19;4994699;28;97507;-48
2022/07/09 08:07:09;;;;;;;2.10;1.90;;;;;;;21.43;59.99;102245.19;4992867;28;97181;-48
2022/07/09 08:09:34;;;;;;;2.80;2.10;;;;;;;21.46;59.99;102248.97;4995820;28;97281;-49
2022/07/09 08:12:00;;;;;;;1.93;1.40;;;;;;;21.47;59.83;102256.09;5000036;28;96863;-48
2022/07/09 08:14:26;;;;;;;3.13;2.30;;;;;;;21.45;59.79;102258.66;5001943;28;99005;-47
2022/07/09 08:16:51;;;;;;;2.33;1.47;;;;;;;21.42;59.88;102256.91;4997363;28;97246;-47
2022/07/09 08:19:16;;;;;;;1.90;1.77;;;;;;;21.41;59.82;102256.16;4996006;28;96804;-47
2022/07/09 08:21:42;;;;;;;5.53;2.13;;;;;;;21.41;59.61;102250.56;4997752;28;97240;-46
2022/07/09 08:24:08;;;;;;;2.20;1.67;;;;;;;21.43;59.58;102252.81;4988459;28;99738;-47
2022/07/09 08:26:33;;;;;;;1.93;1.70;;;;;;;21.42;59.62;102240.88;4996733;28;96724;-47
2022/07/09 08:28:58;;;;;;;2.07;1.97;;;;;;;21.40;59.59;102235.06;4995165;28;97180;-49
2022/07/09 08:31:24;;;;;;;3.50;2.30;;;;;;;21.42;59.51;102238.09;4997214;28;96918;-47
2022/07/09 08:33:50;;;;;;;1.70;1.47;;;;;;;21.46;59.36;102246.16;4996110;28;97096;-48
2022/07/09 08:36:16;;;;;;;3.40;1.80;;;;;;;21.45;59.32;102236.25;5002189;28;97293;-47
2022/07/09 08:38:42;;;;;;;1.70;1.60;;;;;;;21.43;59.39;102238.81;4994913;28;97048;-47
2022/07/09 08:41:08;;;;;;;4.33;1.60;;;;;;;21.43;59.44;102241.63;4998135;28;97098;-47
2022/07/09 08:43:35;;;;;;;2.37;2.03;;;;;;;21.45;59.34;102244.66;4991663;28;98330;-47
2022/07/09 08:46:00;;;;;;;1.70;1.60;;;;;;;21.50;59.31;102232.63;4998798;28;97205;-47
2022/07/09 08:48:26;;;;;;;2.40;2.20;;;;;;;21.56;58.84;102227.69;4989366;28;96852;-48
2022/07/09 08:50:52;;;;;;;2.47;1.67;;;;;;;21.58;58.82;102219.50;4996046;28;97257;-47
2022/07/09 08:53:19;;;;;;;5.20;1.67;;;;;;;21.64;58.71;102211.78;4997359;28;97166;-47
2022/07/09 08:55:47;;;;;;;2.07;1.53;;;;;;;21.74;58.65;102210.09;4996593;28;97135;-46
2022/07/09 08:58:14;;;;;;;3.57;2.10;;;;;;;21.84;58.65;102207.69;4998090;28;96761;-49
2022/07/09 09:00:40;;;;;;;2.10;2.00;;;;;;;21.89;58.29;102212.44;4996939;28;96795;-48
2022/07/09 09:03:06;;;;;;;2.27;1.70;;;;;;;21.96;58.32;102211.81;4997913;28;97508;-48
2022/07/09 09:05:31;;;;;;;1.97;1.87;;;;;;;22.03;58.13;102222.41;4996205;28;102253;-48
2022/07/09 09:07:56;;;;;;;2.50;1.60;;;;;;;22.06;58.13;102215.75;4994067;28;98325;-48
2022/07/09 09:10:23;;;;;;;2.13;1.93;;;;;;;22.09;58.02;102221.03;4998479;28;97148;-48
2022/07/09 09:12:54;;;;;;;5.90;1.97;;;;;;;22.13;58.07;102218.66;4988414;28;97695;-47
2022/07/09 09:15:21;;;;;;;4.47;1.80;;;;;;;22.24;57.99;102215.66;5002442;28;97277;-50
2022/07/09 09:17:46;;;;;;;1.60;1.50;;;;;;;22.39;57.87;102215.88;4994486;28;96944;-47
2022/07/09 09:20:15;;;;;;;3.43;1.73;;;;;;;22.57;57.73;102213.53;4998446;28;97247;-47
2022/07/09 09:22:49;;;;;;;1.93;1.67;;;;;;;22.75;57.37;102212.69;4996031;28;97509;-48
2022/07/09 09:25:18;;;;;;;1.90;1.80;;;;;;;22.86;57.12;102220.91;4995052;28;97777;-48
2022/07/09 09:27:54;;;;;;;3.60;1.73;;;;;;;22.89;56.70;102217.75;4996935;28;96877;-48
2022/07/09 09:30:19;;;;;;;1.63;1.53;;;;;;;22.90;56.81;102208.06;4992401;28;97601;-48
2022/07/09 09:32:59;;;;;;;2.03;1.80;;;;;;;22.96;56.48;102211.50;4993049;28;96870;-52
2022/07/09 09:35:26;;;;;;;1.40;1.30;;;;;;;23.10;56.53;102210.19;4993435;28;97344;-47
2022/07/09 09:37:52;;;;;;;1.60;1.50;;;;;;;23.25;56.37;102208.84;4990883;28;97187;-49
2022/07/09 09:40:17;;;;;;;1.67;1.43;;;;;;;23.30;56.02;102205.16;4999789;28;98978;-47
2022/07/09 09:42:45;;;;;;;1.30;1.30;;;;;;;23.37;55.67;102205.25;4996685;28;97602;-47
2022/07/09 09:45:14;;;;;;;1.70;1.60;;;;;;;23.44;55.26;102210.22;4999365;28;97850;-48
2022/07/09 09:47:45;;;;;;;2.60;1.70;;;;;;;23.68;55.43;102195.84;4998582;28;96891;-48
2022/07/09 09:50:15;;;;;;;3.77;1.50;;;;;;;23.90;54.72;102196.59;4998647;28;101732;-47
2022/07/09 09:52:41;;;;;;;1.87;1.67;;;;;;;23.91;54.35;102204.50;4994819;28;97640;-48
2022/07/09 09:55:07;;;;;;;1.50;1.33;;;;;;;23.85;54.82;102201.81;4995180;28;96872;-48
2022/07/09 09:57:35;;;;;;;1.80;1.70;;;;;;;23.83;54.38;102192.41;4997661;28;96786;-47
2022/07/09 10:00:01;;;;;;;1.43;1.33;;;;;;;23.87;54.19;102190.03;4995494;28;97387;-47
2022/07/09 10:02:28;;;;;;;1.37;1.27;;;;;;;23.94;53.75;102194.97;4992745;28;96808;-48
2022/07/09 10:04:54;;;;;;;1.40;1.30;;;;;;;24.00;53.56;102192.03;5000299;28;100871;-48
2022/07/09 10:07:20;;;;;;;1.63;1.53;;;;;;;24.00;53.42;102180.78;5001738;28;97258;-47
2022/07/09 10:09:58;;;;;;;1.30;1.20;;;;;;;24.14;51.77;102182.22;5000157;28;97297;-47
2022/07/09 10:12:32;;;;;;;1.50;1.40;;;;;;;24.25;52.20;102173.47;4996629;28;97888;-48
2022/07/09 10:14:58;;;;;;;1.43;1.13;;;;;;;24.23;52.76;102178.91;5000103;28;97036;-48
2022/07/09 10:17:25;;;;;;;1.03;0.93;;;;;;;24.24;52.65;102180.41;4995493;28;97234;-48
2022/07/09 10:19:53;;;;;;;1.00;1.00;;;;;;;24.31;52.56;102176.91;4995302;28;97454;-48
2022/07/09 10:22:19;;;;;;;1.77;1.47;;;;;;;24.48;52.58;102163.91;5000614;28;97375;-47
2022/07/09 10:24:46;;;;;;;1.70;1.23;;;;;;;24.71;51.93;102160.41;4990384;28;98263;-47
2022/07/09 10:27:12;;;;;;;0.80;0.80;;;;;;;24.73;51.37;102163.44;5001248;28;96750;-47
2022/07/09 10:29:56;;;;;;;1.17;1.07;;;;;;;24.71;50.64;102171.69;5000175;28;97368;-48
2022/07/09 10:32:27;;;;;;;0.90;0.90;;;;;;;24.80;51.21;102159.94;4995125;28;101235;-47
2022/07/09 10:35:01;;;;;;;1.30;1.20;;;;;;;24.94;51.46;102153.63;4995152;28;101550;-48
2022/07/09 10:37:31;;;;;;;1.27;1.17;;;;;;;25.08;50.48;102148.59;4996568;28;96786;-47
2022/07/09 10:39:56;;;;;;;2.13;1.00;;;;;;;25.28;50.63;102148.47;4996054;28;97291;-47
2022/07/09 10:42:25;;;;;;;1.63;1.37;;;;;;;25.34;50.18;102150.38;4996931;28;98008;-48
2022/07/09 10:44:51;;;;;;;1.30;1.20;;;;;;;25.30;50.25;102148.66;4998970;28;97149;-48
2022/07/09 10:47:17;;;;;;;1.10;1.10;;;;;;;25.27;50.03;102141.31;5003480;28;97243;-47
2022/07/09 10:49:42;;;;;;;1.47;1.27;;;;;;;25.21;50.11;102137.94;4992251;28;97060;-47
2022/07/09 10:52:08;;;;;;;2.67;1.40;;;;;;;25.24;49.97;102125.53;4991282;28;97536;-47
2022/07/09 10:54:44;;;;;;;1.10;1.00;;;;;;;25.35;50.11;102138.53;4994763;28;97176;-47
2022/07/09 10:57:10;;;;;;;1.23;1.13;;;;;;;25.47;49.60;102136.88;4993159;28;96716;-48
2022/07/09 10:59:36;;;;;;;1.20;1.20;;;;;;;25.49;49.44;102133.50;4994044;28;97493;-47
2022/07/09 11:02:01;;;;;;;2.40;1.00;;;;;;;25.40;49.44;102131.19;4999250;28;97595;-48
2022/07/09 11:04:31;;;;;;;2.60;1.00;;;;;;;25.30;49.33;102139.44;4991886;28;97080;-48
2022/07/09 11:06:58;;;;;;;1.20;1.10;;;;;;;25.35;49.55;102123.66;4996369;28;96713;-48
2022/07/09 11:09:30;;;;;;;1.43;0.90;;;;;;;25.35;48.84;102121.63;5002600;28;97125;-47
2022/07/09 11:11:56;;;;;;;0.90;0.90;;;;;;;25.34;49.29;102125.00;4987476;28;106190;-47
2022/07/09 11:14:21;;;;;;;1.30;1.00;;;;;;;25.34;49.45;102125.00;4993199;28;97224;-48
2022/07/09 11:16:54;;;;;;;1.40;1.30;;;;;;;25.29;48.43;102123.88;5003529;28;97009;-47
2022/07/09 11:19:21;;;;;;;1.33;1.00;;;;;;;25.33;48.92;102115.03;5006209;28;97205;-47